ADDS TAF Data INFO
IDs: Format: Raw Decoded Include METARs

Data at: 1413 UTC 19 Nov 2017

KROW 191351Z 16003KT 10SM CLR M03/M09 A3033 RMK AO2 SLP271 T10331089

KROW 191134Z 1912/2012 23005KT P6SM BKN250
  FM191800 16012G20KT P6SM SCT250
  FM200100 20006KT P6SM SKC